Time;durP1;ratioP1;P1;durP2;ratioP2;P2;SDS_P1;SDS_P2;PMS_P1;PMS_P2;Temp;Humidity;BMP_temperature;BMP_pressure;BME280_temperature;BME280_humidity;BME280_pressure;Samples;Min_cycle;Max_cycle;Signal;HPM_P1;HPM_P2
2023/02/08 00:01:11;;;;;;;13.77;7.50;;;16.70;45.80;;;;;;4981377;28;20027;-73
2023/02/08 00:03:37;;;;;;;14.90;7.50;;;16.70;45.80;;;;;;4981161;28;20350;-74
2023/02/08 00:06:04;;;;;;;12.48;7.35;;;16.70;45.80;;;;;;4996001;28;20078;-72
2023/02/08 00:08:31;;;;;;;11.25;6.43;;;16.70;45.80;;;;;;4981090;28;20556;-73
2023/02/08 00:10:56;;;;;;;12.73;7.95;;;16.70;45.90;;;;;;4981209;28;20038;-73
2023/02/08 00:13:23;;;;;;;12.15;6.72;;;16.60;45.90;;;;;;4981227;28;20085;-73
2023/02/08 00:15:52;;;;;;;11.85;7.28;;;16.60;45.70;;;;;;4979667;28;20111;-72
2023/02/08 00:18:17;;;;;;;11.50;7.80;;;16.60;46.10;;;;;;4981130;28;20053;-74
2023/02/08 00:20:44;;;;;;;15.30;8.43;;;16.60;45.90;;;;;;4981082;28;20218;-75
2023/02/08 00:23:11;;;;;;;12.15;7.72;;;16.60;45.90;;;;;;4995987;28;20030;-72
2023/02/08 00:25:37;;;;;;;12.68;7.03;;;16.70;45.90;;;;;;4982388;28;20015;-72
2023/02/08 00:28:04;;;;;;;11.23;7.50;;;16.70;46.00;;;;;;4984509;28;20074;-73
2023/02/08 00:30:29;;;;;;;12.13;7.55;;;16.70;45.90;;;;;;4984604;28;20065;-72
2023/02/08 00:32:55;;;;;;;10.13;6.53;;;16.70;46.00;;;;;;4984499;28;20023;-72
2023/02/08 00:35:21;;;;;;;12.65;7.10;;;16.70;45.90;;;;;;4984360;28;20033;-73
2023/02/08 00:37:47;;;;;;;11.38;6.95;;;16.70;46.10;;;;;;4983032;28;20195;-73
2023/02/08 00:40:12;;;;;;;13.93;7.88;;;16.70;46.00;;;;;;4984326;28;20030;-72
2023/02/08 00:42:38;;;;;;;12.60;8.05;;;16.80;46.00;;;;;;4984421;28;20586;-74
2023/02/08 00:45:04;;;;;;;9.75;7.15;;;16.80;46.00;;;;;;4984160;28;20115;-73
2023/02/08 00:47:30;;;;;;;13.85;7.90;;;16.80;45.90;;;;;;4999205;28;20033;-73
2023/02/08 00:49:55;;;;;;;11.98;7.57;;;16.90;45.90;;;;;;4999147;28;20058;-73
2023/02/08 00:52:21;;;;;;;11.98;7.00;;;16.80;45.80;;;;;;4982942;28;20055;-74
2023/02/08 00:54:47;;;;;;;12.15;7.55;;;16.80;45.90;;;;;;4999113;28;20093;-73
2023/02/08 00:57:13;;;;;;;12.10;6.97;;;16.80;45.70;;;;;;4983997;28;20050;-73
2023/02/08 00:59:39;;;;;;;12.77;7.65;;;16.80;45.90;;;;;;4984115;28;20095;-73
2023/02/08 01:02:05;;;;;;;11.75;7.95;;;16.80;45.90;;;;;;4984021;28;20038;-73
2023/02/08 01:04:31;;;;;;;13.15;7.38;;;16.80;45.70;;;;;;4983983;28;20026;-71
2023/02/08 01:06:57;;;;;;;12.50;7.72;;;16.90;45.80;;;;;;4983813;28;20225;-72
2023/02/08 01:09:23;;;;;;;14.93;7.38;;;16.90;45.70;;;;;;4982810;28;20018;-71
2023/02/08 01:11:49;;;;;;;11.77;8.07;;;16.80;45.60;;;;;;4983843;28;20033;-73
2023/02/08 01:14:15;;;;;;;10.27;7.00;;;16.80;45.70;;;;;;4998636;28;20030;-74
2023/02/08 01:16:41;;;;;;;14.15;8.27;;;16.80;45.70;;;;;;4983658;28;20030;-73
2023/02/08 01:19:07;;;;;;;15.10;8.52;;;16.80;45.60;;;;;;4983591;28;20033;-73
2023/02/08 01:21:35;;;;;;;14.05;7.75;;;16.80;45.70;;;;;;4998715;28;20057;-74
2023/02/08 01:24:02;;;;;;;11.60;7.10;;;16.80;45.80;;;;;;4998499;28;20027;-73
2023/02/08 01:26:28;;;;;;;14.32;8.85;;;16.80;45.70;;;;;;4983780;28;20191;-74
2023/02/08 01:28:55;;;;;;;13.07;7.15;;;16.80;45.70;;;;;;4998546;28;20273;-73
2023/02/08 01:31:28;;;;;;;14.18;8.63;;;16.80;45.70;;;;;;4998491;28;20031;-73
2023/02/08 01:33:56;;;;;;;11.88;7.38;;;16.80;45.60;;;;;;4983369;28;20030;-75
2023/02/08 01:36:22;;;;;;;12.68;7.47;;;16.80;45.80;;;;;;4981680;28;20035;-73
2023/02/08 01:38:47;;;;;;;12.60;6.95;;;16.80;45.70;;;;;;4981652;28;20022;-73
2023/02/08 01:41:19;;;;;;;12.55;7.78;;;16.90;45.90;;;;;;4983428;28;20026;-74
2023/02/08 01:44:26;;;;;;;12.90;7.75;;;16.90;45.70;;;;;;4983136;28;20033;-74
2023/02/08 01:46:52;;;;;;;15.05;8.32;;;16.90;45.80;;;;;;4983103;28;20038;-74
2023/02/08 01:49:24;;;;;;;11.65;6.95;;;16.90;45.80;;;;;;4983051;28;20034;-74
2023/02/08 01:51:56;;;;;;;12.15;7.72;;;16.90;45.60;;;;;;4982509;28;20313;-73
2023/02/08 01:54:25;;;;;;;13.57;7.93;;;16.90;45.70;;;;;;4983055;28;20042;-74
2023/02/08 01:56:51;;;;;;;12.02;8.13;;;16.90;45.70;;;;;;4982820;28;20041;-74
2023/02/08 01:59:21;;;;;;;12.65;8.13;;;16.90;45.80;;;;;;4997847;28;20041;-73
2023/02/08 02:01:49;;;;;;;9.82;7.00;;;16.90;45.70;;;;;;4997778;28;20066;-73
2023/02/08 02:04:15;;;;;;;11.75;7.47;;;17.00;45.80;;;;;;4997650;28;20472;-73
2023/02/08 02:06:48;;;;;;;12.10;7.85;;;17.00;45.70;;;;;;4982842;28;20038;-75
2023/02/08 02:09:39;;;;;;;12.65;7.22;;;17.00;45.70;;;;;;4982724;28;20031;-75
2023/02/08 02:12:07;;;;;;;11.57;8.43;;;17.00;45.50;;;;;;4981309;28;20093;-73
2023/02/08 02:14:34;;;;;;;12.77;8.30;;;16.90;45.60;;;;;;4997481;28;20105;-73
2023/02/08 02:17:00;;;;;;;14.27;8.32;;;17.00;45.60;;;;;;4982473;28;20030;-73
2023/02/08 02:19:58;;;;;;;11.60;8.32;;;16.90;45.60;;;;;;4982451;28;20031;-74
2023/02/08 02:22:41;;;;;;;12.68;7.97;;;16.90;46.20;;;;;;4997468;28;20022;-73
2023/02/08 02:25:49;;;;;;;13.27;8.57;;;16.90;45.60;;;;;;4982507;28;20023;-74
2023/02/08 02:28:33;;;;;;;12.47;7.90;;;17.00;45.40;;;;;;4976983;28;20031;-75
2023/02/08 02:31:40;;;;;;;11.90;8.10;;;17.00;45.60;;;;;;4982490;28;20023;-73
2023/02/08 02:34:12;;;;;;;12.40;7.68;;;16.90;45.20;;;;;;4981246;28;20027;-74
2023/02/08 02:36:51;;;;;;;13.93;8.57;;;16.90;45.60;;;;;;4997134;28;20233;-74
2023/02/08 02:39:17;;;;;;;12.75;8.70;;;16.90;45.40;;;;;;4982135;28;20069;-72
2023/02/08 02:44:54;;;;;;;12.10;7.45;;;17.00;45.60;;;;;;4982090;28;20030;-72
2023/02/08 02:48:06;;;;;;;11.90;7.70;;;17.00;45.40;;;;;;4980869;28;20026;-74
2023/02/08 02:50:48;;;;;;;12.13;8.40;;;17.10;45.40;;;;;;4976084;28;20070;-71
2023/02/08 02:53:33;;;;;;;14.07;8.07;;;17.00;45.30;;;;;;4981940;28;20150;-74
2023/02/08 02:56:11;;;;;;;11.32;8.18;;;17.00;45.40;;;;;;4981928;28;20035;-73
2023/02/08 02:58:38;;;;;;;12.18;8.25;;;17.00;45.50;;;;;;4981862;28;20042;-76
2023/02/08 03:01:04;;;;;;;13.75;8.90;;;17.00;45.40;;;;;;4981658;28;20042;-73
2023/02/08 03:03:33;;;;;;;15.38;8.13;;;17.10;45.40;;;;;;4981707;28;20023;-75
2023/02/08 03:06:11;;;;;;;12.73;7.70;;;17.10;45.30;;;;;;4981713;28;20020;-73
2023/02/08 03:09:08;;;;;;;10.43;7.20;;;17.10;45.30;;;;;;4981776;28;20321;-73
2023/02/08 03:11:35;;;;;;;14.13;8.38;;;17.10;45.30;;;;;;4981711;28;20049;-74
2023/02/08 03:14:46;;;;;;;11.98;7.85;;;17.10;45.30;;;;;;4996494;28;20042;-73
2023/02/08 03:17:41;;;;;;;10.95;7.15;;;17.00;45.20;;;;;;4965857;28;20049;-72
2023/02/08 03:20:29;;;;;;;11.73;8.20;;;17.00;45.30;;;;;;4974604;28;20062;-71
2023/02/08 03:23:07;;;;;;;;;;;17.00;45.20;;;;;;4981990;28;20122;-74
2023/02/08 03:26:04;;;;;;;12.43;7.85;;;17.00;45.30;;;;;;4996421;28;19909;-73
2023/02/08 03:28:40;;;;;;;12.95;7.93;;;17.00;45.20;;;;;;4980251;28;20101;-74
2023/02/08 03:31:40;;;;;;;14.68;8.50;;;17.10;45.30;;;;;;4980176;28;20041;-74
2023/02/08 03:34:18;;;;;;;14.20;7.47;;;17.00;45.30;;;;;;4979430;28;20035;-76
2023/02/08 03:37:27;;;;;;;10.65;7.28;;;17.00;45.40;;;;;;4981367;28;20027;-75
2023/02/08 03:40:01;;;;;;;13.15;7.53;;;16.90;45.50;;;;;;4940713;29;20039;-75
2023/02/08 03:42:29;;;;;;;13.32;7.70;;;17.00;45.70;;;;;;4940772;29;20028;-75
2023/02/08 03:45:07;;;;;;;10.07;7.10;;;17.00;45.60;;;;;;4971112;28;20027;-75
2023/02/08 03:47:37;;;;;;;9.88;6.93;;;17.10;45.60;;;;;;4980247;28;20048;-73
2023/02/08 03:50:07;;;;;;;15.43;8.20;;;17.10;45.50;;;;;;4981191;28;20039;-75
2023/02/08 03:52:34;;;;;;;11.02;7.68;;;17.10;45.40;;;;;;4981300;28;20349;-73
2023/02/08 03:55:09;;;;;;;11.38;7.70;;;17.00;45.30;;;;;;4996223;28;20097;-73
2023/02/08 03:57:58;;;;;;;9.73;6.65;;;17.00;45.50;;;;;;4996131;28;20035;-73
2023/02/08 04:00:24;;;;;;;12.13;7.50;;;17.10;45.60;;;;;;4982420;28;20019;-71
2023/02/08 04:02:55;;;;;;;13.68;7.50;;;17.10;45.60;;;;;;4985150;28;20376;-72
2023/02/08 04:05:22;;;;;;;11.98;7.35;;;17.10;45.60;;;;;;4985036;28;20023;-74
2023/02/08 04:07:48;;;;;;;13.48;8.50;;;17.10;45.40;;;;;;4985024;28;20030;-74
2023/02/08 04:10:15;;;;;;;14.02;7.93;;;17.20;45.50;;;;;;4984903;28;20122;-73
2023/02/08 04:12:40;;;;;;;11.10;7.47;;;17.10;45.30;;;;;;4984944;28;20049;-75
2023/02/08 04:15:06;;;;;;;11.98;7.68;;;17.10;45.40;;;;;;4984758;28;20326;-73
2023/02/08 04:17:32;;;;;;;11.43;7.55;;;17.10;45.30;;;;;;4999595;28;20043;-72
2023/02/08 04:19:59;;;;;;;10.48;6.88;;;17.10;45.50;;;;;;4984638;28;20031;-73
2023/02/08 04:22:25;;;;;;;9.98;7.32;;;17.10;45.40;;;;;;4999652;28;20030;-72
2023/02/08 04:24:50;;;;;;;10.52;7.88;;;17.10;45.30;;;;;;4999513;28;20134;-74
2023/02/08 04:27:16;;;;;;;10.48;6.43;;;17.10;45.30;;;;;;4984648;28;20023;-72
2023/02/08 04:29:42;;;;;;;12.63;7.55;;;17.10;45.40;;;;;;4984518;28;20058;-74
2023/02/08 04:32:12;;;;;;;10.65;6.93;;;17.10;45.30;;;;;;4984566;28;20054;-73
2023/02/08 04:34:39;;;;;;;10.15;6.93;;;17.10;45.30;;;;;;4999753;28;20022;-72
2023/02/08 04:37:05;;;;;;;12.73;7.03;;;17.00;45.30;;;;;;4999490;28;20031;-74
2023/02/08 04:39:31;;;;;;;10.23;7.03;;;17.00;45.40;;;;;;4999506;28;20399;-72
2023/02/08 04:41:58;;;;;;;10.18;6.78;;;17.00;45.30;;;;;;4999253;28;20030;-74
2023/02/08 04:44:24;;;;;;;8.82;6.65;;;17.10;45.40;;;;;;4984343;28;20097;-74
2023/02/08 04:46:49;;;;;;;10.63;7.68;;;17.10;45.40;;;;;;4983128;28;20038;-73
2023/02/08 04:49:15;;;;;;;10.50;7.00;;;17.10;45.30;;;;;;4999201;28;20030;-74
2023/02/08 04:51:41;;;;;;;12.32;6.90;;;17.10;45.40;;;;;;4999304;28;20054;-73
2023/02/08 04:54:06;;;;;;;11.98;7.07;;;17.10;45.30;;;;;;4999060;28;20269;-74
2023/02/08 04:56:32;;;;;;;12.13;6.97;;;17.10;45.30;;;;;;4984011;28;20077;-73
2023/02/08 04:58:58;;;;;;;8.02;6.03;;;17.10;45.40;;;;;;4984141;28;20018;-72
2023/02/08 05:01:23;;;;;;;11.57;6.68;;;17.10;45.40;;;;;;4984153;28;20089;-73
2023/02/08 05:03:49;;;;;;;9.07;6.38;;;17.10;45.40;;;;;;4983967;28;20031;-72
2023/02/08 05:06:15;;;;;;;9.35;6.22;;;17.10;45.40;;;;;;4983804;28;20293;-73
2023/02/08 05:08:40;;;;;;;11.10;6.75;;;17.10;45.30;;;;;;4983774;28;20030;-73
2023/02/08 05:11:06;;;;;;;10.75;7.28;;;17.20;45.50;;;;;;4983490;28;20318;-74
2023/02/08 05:13:32;;;;;;;10.57;7.05;;;17.10;45.40;;;;;;4981765;28;20110;-72
2023/02/08 05:15:58;;;;;;;10.13;7.03;;;17.10;45.40;;;;;;4982685;28;20191;-74
2023/02/08 05:18:23;;;;;;;8.50;6.40;;;17.10;45.40;;;;;;4983942;28;20026;-73
2023/02/08 05:20:57;;;;;;;10.23;7.32;;;17.10;45.40;;;;;;4984055;28;20112;-73
2023/02/08 05:23:23;;;;;;;8.45;6.25;;;17.10;45.30;;;;;;4998783;28;20377;-72
2023/02/08 05:25:48;;;;;;;8.80;6.68;;;17.10;45.40;;;;;;4982379;28;20018;-74
2023/02/08 05:28:14;;;;;;;10.27;6.97;;;17.20;45.30;;;;;;4983680;28;20318;-73
2023/02/08 05:30:40;;;;;;;10.00;6.20;;;17.20;45.30;;;;;;4998721;28;20105;-72
2023/02/08 05:33:06;;;;;;;10.07;6.90;;;17.10;45.20;;;;;;4983687;28;20039;-74
2023/02/08 05:35:32;;;;;;;10.45;7.13;;;17.00;45.20;;;;;;4983607;28;20233;-73
2023/02/08 05:37:57;;;;;;;9.25;6.40;;;17.00;45.30;;;;;;4983492;28;20050;-73
2023/02/08 05:40:23;;;;;;;10.05;6.10;;;17.00;45.30;;;;;;4998256;28;20031;-74
2023/02/08 05:42:49;;;;;;;9.38;6.40;;;17.10;45.50;;;;;;4983222;28;20027;-72
2023/02/08 05:45:15;;;;;;;9.90;6.35;;;17.10;45.40;;;;;;4983344;28;20026;-73
2023/02/08 05:47:41;;;;;;;10.18;6.32;;;17.10;45.30;;;;;;4998070;28;20030;-72
2023/02/08 05:50:08;;;;;;;9.85;6.28;;;17.10;45.30;;;;;;4983010;28;20053;-74
2023/02/08 05:52:34;;;;;;;9.77;6.65;;;17.10;45.20;;;;;;4998094;28;20595;-73
2023/02/08 05:54:59;;;;;;;9.10;6.32;;;17.10;45.30;;;;;;4997839;28;20027;-72
2023/02/08 05:57:25;;;;;;;7.95;5.70;;;17.10;45.20;;;;;;4981990;28;20054;-73
2023/02/08 05:59:51;;;;;;;8.40;6.38;;;17.10;45.30;;;;;;4982929;28;20023;-73
2023/02/08 06:02:16;;;;;;;7.80;5.28;;;17.10;45.20;;;;;;4983062;28;20022;-73
2023/02/08 06:04:42;;;;;;;10.45;6.10;;;17.10;45.10;;;;;;4997952;28;20038;-73
2023/02/08 06:07:08;;;;;;;10.68;6.35;;;17.10;45.20;;;;;;4997878;28;20508;-72
2023/02/08 06:09:33;;;;;;;8.13;6.07;;;17.10;45.00;;;;;;4982854;28;20034;-73
2023/02/08 06:11:59;;;;;;;11.52;6.18;;;17.20;45.00;;;;;;4981573;28;20030;-74
2023/02/08 06:14:25;;;;;;;9.55;6.45;;;17.10;44.90;;;;;;4982713;28;20341;-71
2023/02/08 06:16:50;;;;;;;8.73;6.22;;;17.10;44.90;;;;;;4997497;28;20081;-73
2023/02/08 06:19:16;;;;;;;8.70;6.28;;;17.10;45.00;;;;;;4982824;28;20069;-73
2023/02/08 06:21:42;;;;;;;11.50;6.57;;;17.10;44.90;;;;;;4981448;28;20133;-73
2023/02/08 06:24:09;;;;;;;9.77;6.50;;;17.10;45.00;;;;;;4982469;28;20026;-73
2023/02/08 06:26:34;;;;;;;9.82;6.45;;;17.10;44.80;;;;;;4997527;28;20076;-72
2023/02/08 06:29:00;;;;;;;9.85;6.30;;;17.10;44.70;;;;;;4997500;28;20018;-76
2023/02/08 06:31:26;;;;;;;10.90;6.78;;;17.10;44.90;;;;;;4982557;28;20086;-73
2023/02/08 06:33:51;;;;;;;9.07;6.28;;;17.00;44.80;;;;;;4982661;28;20053;-74
2023/02/08 06:36:17;;;;;;;8.35;6.20;;;17.00;44.90;;;;;;4982434;28;20034;-72
2023/02/08 06:38:43;;;;;;;10.07;6.45;;;17.00;45.00;;;;;;4997427;28;20023;-73
2023/02/08 06:41:08;;;;;;;8.50;5.97;;;17.00;45.00;;;;;;4982375;28;20033;-73
2023/02/08 06:43:34;;;;;;;9.48;5.95;;;17.00;45.00;;;;;;4982210;28;20027;-74
2023/02/08 06:46:03;;;;;;;11.88;6.85;;;17.10;45.20;;;;;;4997237;28;20019;-72
2023/02/08 06:48:29;;;;;;;;;;;17.10;45.20;;;;;;4997480;28;20049;-74
2023/02/08 06:50:55;;;;;;;9.40;6.32;;;17.10;45.10;;;;;;4982073;28;19914;-73
2023/02/08 06:53:21;;;;;;;9.95;6.25;;;17.00;45.10;;;;;;4980837;28;20039;-73
2023/02/08 06:55:48;;;;;;;11.68;6.47;;;17.00;45.10;;;;;;4982005;28;20027;-75
2023/02/08 06:58:13;;;;;;;10.25;5.90;;;17.00;45.20;;;;;;4981958;28;20027;-75
2023/02/08 07:00:39;;;;;;;11.52;6.85;;;17.00;45.10;;;;;;4982085;28;20394;-73
2023/02/08 07:03:05;;;;;;;10.18;6.82;;;17.10;45.20;;;;;;4982038;28;20033;-75
2023/02/08 07:05:34;;;;;;;10.27;5.90;;;17.10;45.10;;;;;;4996828;28;20336;-76
2023/02/08 07:07:59;;;;;;;;;;;17.10;45.10;;;;;;4997386;28;20337;-73
2023/02/08 07:10:25;;;;;;;8.48;5.82;;;17.10;45.00;;;;;;4980483;28;19917;-74
2023/02/08 07:12:51;;;;;;;10.95;6.97;;;17.10;45.00;;;;;;4981846;28;20310;-73
2023/02/08 07:15:16;;;;;;;8.35;5.97;;;17.10;45.00;;;;;;4981612;28;20041;-72
2023/02/08 07:17:42;;;;;;;10.38;6.05;;;17.10;44.90;;;;;;4981661;28;20196;-76
2023/02/08 07:20:10;;;;;;;9.80;6.78;;;17.10;45.00;;;;;;4981779;28;20027;-73
2023/02/08 07:22:36;;;;;;;9.88;6.20;;;17.10;45.00;;;;;;4981660;28;20022;-73
2023/02/08 07:25:02;;;;;;;10.45;6.53;;;17.10;45.00;;;;;;4981850;28;20097;-73
2023/02/08 07:27:28;;;;;;;9.23;5.97;;;17.10;45.00;;;;;;4996660;28;20030;-73
2023/02/08 07:29:54;;;;;;;9.73;6.00;;;17.20;44.90;;;;;;4981823;28;20034;-73
2023/02/08 07:32:19;;;;;;;9.25;6.03;;;17.10;44.90;;;;;;4980447;28;20030;-72
2023/02/08 07:34:45;;;;;;;9.30;6.53;;;17.10;45.00;;;;;;4995798;28;20348;-72
2023/02/08 07:37:11;;;;;;;9.00;5.97;;;17.10;45.00;;;;;;4981563;28;20094;-76
2023/02/08 07:39:37;;;;;;;10.68;6.22;;;17.10;45.10;;;;;;4996492;28;20027;-74
2023/02/08 07:42:05;;;;;;;7.22;5.72;;;17.10;45.10;;;;;;4981714;28;20019;-74
2023/02/08 07:44:31;;;;;;;10.20;6.57;;;17.10;45.00;;;;;;4996671;28;20023;-74
2023/02/08 07:46:57;;;;;;;12.25;6.68;;;17.10;44.90;;;;;;4981494;28;20038;-74
2023/02/08 07:49:23;;;;;;;8.82;6.22;;;17.10;44.90;;;;;;4996441;28;20033;-74
2023/02/08 07:51:48;;;;;;;10.70;6.22;;;17.10;44.80;;;;;;4981275;28;20091;-74
2023/02/08 07:54:14;;;;;;;26.55;12.40;;;17.00;45.10;;;;;;4981317;28;20031;-74
2023/02/08 07:56:40;;;;;;;14.98;7.25;;;16.00;40.50;;;;;;4979886;28;20054;-73
2023/02/08 07:59:06;;;;;;;15.55;8.43;;;16.50;45.70;;;;;;4981289;28;20027;-71
2023/02/08 08:01:31;;;;;;;12.93;8.07;;;16.80;45.30;;;;;;4996256;28;20022;-73
2023/02/08 08:03:57;;;;;;;21.85;7.78;;;16.90;45.00;;;;;;4998570;28;20098;-74
2023/02/08 08:06:25;;;;;;;13.00;6.68;;;17.10;44.90;;;;;;5000034;28;20065;-73
2023/02/08 08:08:51;;;;;;;75.55;13.10;;;17.10;44.50;;;;;;4998794;28;20101;-76
2023/02/08 08:11:17;;;;;;;21.80;8.43;;;17.20;44.20;;;;;;4996324;28;20026;-73
2023/02/08 08:13:43;;;;;;;15.43;8.35;;;17.30;44.40;;;;;;4993598;28;20392;-76
2023/02/08 08:16:09;;;;;;;19.63;7.40;;;17.40;44.50;;;;;;4981298;28;20034;-75
2023/02/08 08:18:35;;;;;;;18.70;7.22;;;17.40;44.50;;;;;;4980190;28;20394;-72
2023/02/08 08:21:01;;;;;;;12.25;7.55;;;17.40;44.30;;;;;;4996976;28;20022;-74
2023/02/08 08:23:31;;;;;;;17.75;7.40;;;17.50;44.40;;;;;;4994391;28;20385;-75
2023/02/08 08:26:05;;;;;;;17.52;7.63;;;17.50;44.20;;;;;;4986699;28;20199;-73
2023/02/08 08:28:30;;;;;;;16.35;6.55;;;17.60;44.30;;;;;;4996562;28;20022;-74
2023/02/08 08:30:56;;;;;;;13.52;6.55;;;17.60;44.30;;;;;;4994688;28;20356;-73
2023/02/08 08:33:22;;;;;;;41.10;13.68;;;17.60;44.20;;;;;;4988626;28;20022;-73
2023/02/08 08:35:47;;;;;;;15.85;7.60;;;17.20;39.60;;;;;;4997005;28;20030;-71
2023/02/08 08:38:13;;;;;;;13.60;7.13;;;17.40;44.30;;;;;;5000331;28;20330;-74
2023/02/08 08:40:39;;;;;;;12.48;7.45;;;17.50;44.20;;;;;;4995370;28;20080;-74
2023/02/08 08:43:04;;;;;;;20.08;6.57;;;17.50;44.20;;;;;;4999704;28;20022;-73
2023/02/08 08:45:31;;;;;;;11.40;5.80;;;17.60;44.30;;;;;;4998265;28;20030;-73
2023/02/08 08:47:59;;;;;;;15.57;6.97;;;17.60;44.20;;;;;;5002282;28;20038;-73
2023/02/08 08:50:25;;;;;;;11.10;7.10;;;17.70;44.30;;;;;;5001167;28;20057;-74
2023/02/08 08:52:50;;;;;;;11.93;6.60;;;17.70;44.20;;;;;;5003495;28;20272;-72
2023/02/08 08:55:16;;;;;;;13.23;7.20;;;17.60;44.30;;;;;;4992851;28;20220;-74
2023/02/08 08:57:42;;;;;;;12.90;6.68;;;17.60;44.20;;;;;;4997643;28;20069;-75
2023/02/08 09:00:08;;;;;;;12.20;6.22;;;17.60;44.10;;;;;;4998178;28;20069;-75
2023/02/08 09:02:34;;;;;;;12.18;6.70;;;17.50;44.20;;;;;;5000867;28;20490;-73
2023/02/08 09:05:01;;;;;;;10.50;5.57;;;17.40;44.10;;;;;;5002841;28;20054;-73
2023/02/08 09:07:27;;;;;;;9.73;6.28;;;17.40;44.00;;;;;;5002247;28;20069;-74
2023/02/08 09:09:52;;;;;;;28.55;7.40;;;17.40;44.50;;;;;;5003382;28;20030;-73
2023/02/08 09:12:18;;;;;;;26.60;7.28;;;16.90;43.30;;;;;;4990438;28;20033;-76
2023/02/08 09:14:44;;;;;;;24.05;7.45;;;17.10;44.20;;;;;;4996947;28;20346;-80
2023/02/08 09:17:11;;;;;;;24.92;7.50;;;17.20;44.30;;;;;;5002928;28;20031;-78
2023/02/08 09:19:36;;;;;;;22.50;7.75;;;17.20;44.10;;;;;;5002546;28;20022;-78
2023/02/08 09:22:04;;;;;;;15.77;5.88;;;17.30;44.40;;;;;;5000825;28;20029;-77
2023/02/08 09:24:30;;;;;;;15.88;5.32;;;17.30;44.40;;;;;;5001694;28;20097;-77
2023/02/08 09:26:55;;;;;;;16.63;5.80;;;17.40;44.60;;;;;;5002841;28;20053;-77
2023/02/08 09:29:21;;;;;;;11.65;5.80;;;17.50;44.60;;;;;;5002405;28;20037;-73
2023/02/08 09:31:47;;;;;;;9.20;5.22;;;17.50;44.60;;;;;;5001290;28;20041;-74
2023/02/08 09:34:12;;;;;;;10.18;5.00;;;17.60;44.50;;;;;;5001856;28;20199;-76
2023/02/08 09:36:39;;;;;;;13.25;5.40;;;17.70;44.50;;;;;;4990448;28;20329;-75
2023/02/08 09:39:25;;;;;;;11.98;5.05;;;17.70;44.50;;;;;;4997590;28;20035;-77
2023/02/08 09:42:27;;;;;;;8.32;5.25;;;17.80;44.40;;;;;;5002351;28;20068;-75
2023/02/08 09:45:22;;;;;;;13.48;6.25;;;17.80;44.50;;;;;;5001050;28;20053;-73
2023/02/08 09:47:48;;;;;;;11.23;5.57;;;17.90;44.60;;;;;;5001431;28;20420;-74
2023/02/08 09:50:41;;;;;;;8.95;5.10;;;17.90;44.50;;;;;;5000185;28;20052;-77
2023/02/08 09:53:33;;;;;;;11.52;4.50;;;17.90;45.20;;;;;;5001158;28;20042;-77
2023/02/08 09:56:03;;;;;;;9.85;5.05;;;17.90;44.60;;;;;;5001194;28;20018;-78
2023/02/08 09:58:40;;;;;;;8.65;4.95;;;17.90;44.70;;;;;;5000950;28;20048;-75
2023/02/08 10:01:33;;;;;;;8.70;4.75;;;18.00;44.60;;;;;;5001422;28;20028;-76
2023/02/08 10:04:06;;;;;;;17.05;5.28;;;18.00;44.80;;;;;;4985806;28;20097;-75
2023/02/08 10:06:32;;;;;;;12.13;5.00;;;17.90;44.70;;;;;;5000414;28;20060;-75
2023/02/08 10:09:03;;;;;;;14.38;5.10;;;17.90;45.20;;;;;;5000525;28;20054;-75
2023/02/08 10:11:53;;;;;;;8.63;4.50;;;17.90;44.70;;;;;;5001283;28;20030;-76
2023/02/08 10:14:37;;;;;;;7.03;4.35;;;17.80;44.80;;;;;;5001369;28;20026;-76
2023/02/08 10:17:22;;;;;;;13.70;5.03;;;17.80;44.80;;;;;;5001776;28;20375;-76
2023/02/08 10:20:02;;;;;;;7.75;4.72;;;17.80;44.50;;;;;;5001458;28;20068;-76
2023/02/08 10:22:43;;;;;;;10.38;5.28;;;17.70;44.80;;;;;;4999759;28;20022;-76
2023/02/08 10:25:36;;;;;;;27.08;6.80;;;17.70;44.90;;;;;;4996469;28;20044;-81
2023/02/08 10:28:44;;;;;;;13.27;5.53;;;17.40;43.60;;;;;;5000376;28;20093;-72
2023/02/08 10:31:16;;;;;;;12.07;5.18;;;17.50;44.80;;;;;;4994266;28;20073;-75
2023/02/08 10:33:55;;;;;;;12.52;4.80;;;17.50;45.20;;;;;;4991193;28;20035;-78
2023/02/08 10:36:25;;;;;;;14.10;5.10;;;17.50;45.20;;;;;;5000961;28;20018;-78
2023/02/08 10:38:53;;;;;;;40.20;7.90;;;17.60;45.20;;;;;;4996864;28;20310;-76
2023/02/08 10:41:23;;;;;;;18.02;5.22;;;17.40;44.80;;;;;;4998327;28;20088;-74
2023/02/08 10:44:15;;;;;;;18.17;5.45;;;17.60;45.20;;;;;;5001653;28;20022;-76
2023/02/08 10:46:51;;;;;;;31.02;6.68;;;17.70;45.20;;;;;;4990922;28;20338;-77
2023/02/08 10:49:24;;;;;;;24.38;5.85;;;17.80;45.30;;;;;;4982523;28;20126;-74
2023/02/08 10:51:49;;;;;;;11.75;4.70;;;17.80;45.20;;;;;;5000158;28;20058;-77
2023/02/08 10:54:16;;;;;;;17.95;4.78;;;17.90;45.20;;;;;;5000186;28;20377;-77
2023/02/08 10:57:01;;;;;;;14.32;5.25;;;17.80;45.20;;;;;;5001286;28;20041;-77
2023/02/08 10:59:30;;;;;;;12.57;5.30;;;17.90;45.30;;;;;;5000968;28;20023;-75
2023/02/08 11:01:57;;;;;;;14.02;6.05;;;17.90;45.20;;;;;;5000101;28;20041;-76
2023/02/08 11:04:23;;;;;;;18.60;5.18;;;17.90;45.20;;;;;;4999392;28;20063;-77
2023/02/08 11:06:50;;;;;;;13.23;4.68;;;18.00;45.20;;;;;;5000394;28;20034;-76
2023/02/08 11:09:34;;;;;;;19.98;5.57;;;18.00;45.20;;;;;;4981605;28;20050;-77
2023/02/08 11:12:01;;;;;;;20.55;5.78;;;18.00;45.30;;;;;;4981795;28;20101;-75
2023/02/08 11:14:35;;;;;;;16.02;4.95;;;18.00;45.40;;;;;;4987056;28;20120;-75
2023/02/08 11:17:01;;;;;;;26.02;5.68;;;18.00;45.40;;;;;;5001008;28;20054;-80
2023/02/08 11:19:31;;;;;;;13.63;5.00;;;17.90;45.60;;;;;;4999348;28;20326;-75
2023/02/08 11:21:58;;;;;;;20.75;6.05;;;17.90;45.80;;;;;;5001072;28;20053;-76
2023/02/08 11:24:27;;;;;;;19.27;6.05;;;17.90;45.80;;;;;;5001395;28;20025;-77
2023/02/08 11:26:55;;;;;;;;;;;17.80;45.90;;;;;;4997352;28;20036;-76
2023/02/08 11:29:29;;;;;;;20.70;5.27;;;17.80;46.00;;;;;;4999545;28;19901;-75
2023/02/08 11:32:00;;;;;;;18.40;5.22;;;17.80;46.10;;;;;;4999972;28;20237;-76
2023/02/08 11:34:34;;;;;;;15.07;5.13;;;17.70;46.70;;;;;;5000461;28;20030;-77
2023/02/08 11:37:03;;;;;;;11.35;5.80;;;17.70;46.00;;;;;;4999615;28;20057;-76
2023/02/08 11:39:38;;;;;;;15.10;5.80;;;17.70;46.00;;;;;;5000488;28;20350;-79
2023/02/08 11:42:06;;;;;;;21.15;5.70;;;17.70;46.20;;;;;;4999854;28;20100;-76
2023/02/08 11:44:42;;;;;;;20.30;5.53;;;17.70;46.30;;;;;;4999765;28;20022;-78
2023/02/08 11:47:11;;;;;;;26.05;6.15;;;17.70;46.10;;;;;;4989520;28;20046;-76
2023/02/08 11:49:40;;;;;;;17.75;6.47;;;17.70;46.30;;;;;;4984949;28;20230;-75
2023/02/08 11:52:07;;;;;;;;;;;17.70;46.50;;;;;;5000223;28;20069;-74
2023/02/08 11:54:40;;;;;;;24.70;5.57;;;17.80;46.10;;;;;;5001097;28;19906;-73
2023/02/08 11:57:32;;;;;;;115.25;14.23;;;17.90;45.80;;;;;;4999636;28;20210;-72
2023/02/08 12:00:18;;;;;;;103.97;10.57;;;17.80;43.90;;;;;;4998583;28;20110;-78
2023/02/08 12:02:45;;;;;;;79.60;11.70;;;17.90;45.40;;;;;;4984963;28;20509;-76
2023/02/08 12:05:17;;;;;;;48.15;6.85;;;17.80;43.80;;;;;;4995301;28;20090;-74
2023/02/08 12:07:54;;;;;;;38.67;7.72;;;17.90;45.40;;;;;;4982822;28;20303;-75
2023/02/08 12:10:59;;;;;;;36.30;7.18;;;18.00;45.40;;;;;;4992702;28;20039;-75
2023/02/08 12:13:47;;;;;;;32.38;6.93;;;18.10;45.50;;;;;;4995522;28;20484;-76
2023/02/08 12:16:47;;;;;;;38.97;6.72;;;18.10;45.40;;;;;;4999091;28;20097;-78
2023/02/08 12:19:32;;;;;;;43.22;9.23;;;18.20;45.50;;;;;;4999963;28;20256;-75
2023/02/08 12:22:05;;;;;;;38.92;7.70;;;18.20;45.60;;;;;;4994562;28;20030;-75
2023/02/08 12:24:49;;;;;;;37.80;7.50;;;18.20;45.50;;;;;;5004213;28;20052;-76
2023/02/08 12:27:48;;;;;;;39.33;7.03;;;18.20;45.50;;;;;;5004288;28;20030;-77
2023/02/08 12:30:21;;;;;;;42.35;7.30;;;18.20;45.90;;;;;;5001208;28;20034;-77
2023/02/08 12:33:23;;;;;;;29.83;7.63;;;18.10;46.00;;;;;;4999699;28;20030;-76
2023/02/08 12:36:31;;;;;;;24.98;6.10;;;18.10;46.00;;;;;;5002690;28;20018;-77
2023/02/08 12:42:23;;;;;;;35.22;6.03;;;18.00;46.20;;;;;;5002463;28;20037;-76
2023/02/08 12:45:06;;;;;;;30.48;7.63;;;17.90;46.20;;;;;;4996943;28;20033;-73
2023/02/08 12:47:44;;;;;;;36.92;7.07;;;17.90;47.20;;;;;;4997195;28;20041;-77
2023/02/08 12:50:10;;;;;;;36.45;7.55;;;17.90;46.60;;;;;;5001239;28;20041;-77
2023/02/08 12:53:07;;;;;;;36.67;7.05;;;17.90;46.60;;;;;;5002902;28;20030;-77
2023/02/08 12:55:36;;;;;;;48.75;7.45;;;17.60;44.90;;;;;;4991063;28;20045;-76
2023/02/08 12:58:27;;;;;;;28.00;7.25;;;17.70;46.80;;;;;;4999215;28;20322;-76
2023/02/08 13:00:59;;;;;;;43.47;6.95;;;17.80;49.10;;;;;;5004220;28;20310;-76
2023/02/08 13:03:30;;;;;;;41.90;7.47;;;17.80;46.70;;;;;;5005067;28;20038;-78
2023/02/08 13:05:57;;;;;;;39.45;7.63;;;17.80;46.60;;;;;;4998312;28;20061;-76
2023/02/08 13:08:28;;;;;;;41.92;7.97;;;17.80;46.70;;;;;;5001500;28;20097;-80